createdAt,value
2022-08-09T00:01:52.523Z,101054.51
2022-08-09T00:04:03.473Z,101058.81
2022-08-09T00:06:30.174Z,101065.45
2022-08-09T00:09:00.537Z,101056.88
2022-08-09T00:12:03.220Z,101060.02
2022-08-09T00:14:00.385Z,101058.31
2022-08-09T00:16:36.494Z,101058.42
2022-08-09T00:18:59.641Z,101052.58
2022-08-09T00:21:28.446Z,101054.11
2022-08-09T00:24:00.048Z,101058.78
2022-08-09T00:26:33.273Z,101060.22
2022-08-09T00:29:01.612Z,101064.30
2022-08-09T00:31:58.704Z,101065.34
2022-08-09T00:34:01.281Z,101064.86
2022-08-09T00:36:31.659Z,101065.92
2022-08-09T00:39:00.448Z,101064.91
2022-08-09T00:44:14.660Z,101069.50
2022-08-09T00:44:19.800Z,101062.72
2022-08-09T00:46:45.293Z,101065.69
2022-08-09T00:49:00.413Z,101064.84
2022-08-09T00:51:34.071Z,101068.92
2022-08-09T00:54:00.249Z,101066.00
2022-08-09T00:56:30.686Z,101066.95
2022-08-09T00:58:59.492Z,101073.19
2022-08-09T01:01:44.334Z,101075.16
2022-08-09T01:04:07.983Z,101073.94
2022-08-09T01:06:54.531Z,101072.23
2022-08-09T01:09:35.908Z,101075.47
2022-08-09T01:12:15.747Z,101076.79
2022-08-09T01:14:48.266Z,101076.89
2022-08-09T01:17:20.209Z,101080.39
2022-08-09T01:20:02.721Z,101076.41
2022-08-09T01:22:38.049Z,101072.64
2022-08-09T01:25:25.071Z,101075.56
2022-08-09T01:27:57.111Z,101072.91
2022-08-09T01:30:28.858Z,101073.86
2022-08-09T01:32:58.639Z,101073.48
2022-08-09T01:35:38.486Z,101074.61
2022-08-09T01:38:08.265Z,101072.23
2022-08-09T01:40:35.671Z,101076.59
2022-08-09T01:43:05.348Z,101074.78
2022-08-09T01:45:46.058Z,101078.39
2022-08-09T01:48:07.920Z,101080.36
2022-08-09T01:50:42.071Z,101084.34
2022-08-09T01:53:19.294Z,101086.99
2022-08-09T01:55:41.117Z,101088.70
2022-08-09T01:58:11.054Z,101086.86
2022-08-09T02:00:41.923Z,101086.76
2022-08-09T02:03:13.790Z,101085.43
2022-08-09T02:06:03.746Z,101086.17
2022-08-09T02:08:38.948Z,101086.82
2022-08-09T02:10:51.024Z,101092.40
2022-08-09T02:13:20.428Z,101087.94
2022-08-09T02:15:52.170Z,101091.72
2022-08-09T02:18:23.602Z,101089.81
2022-08-09T02:20:54.019Z,101093.59
2022-08-09T02:23:24.271Z,101091.20
2022-08-09T02:25:55.776Z,101086.27
2022-08-09T02:28:35.669Z,101085.06
2022-08-09T02:31:06.253Z,101080.08
2022-08-09T02:33:38.296Z,101079.61
2022-08-09T02:36:11.610Z,101079.30
2022-08-09T02:38:42.095Z,101081.37
2022-08-09T02:41:14.319Z,101078.23
2022-08-09T02:43:54.784Z,101076.32
2022-08-09T02:46:17.484Z,101079.58
2022-08-09T02:48:47.700Z,101077.67
2022-08-09T02:51:19.884Z,101081.66
2022-08-09T02:53:59.606Z,101077.45
2022-08-09T02:56:23.238Z,101073.58
2022-08-09T02:58:53.257Z,101082.50
2022-08-09T03:01:29.674Z,101078.73
2022-08-09T03:04:17.597Z,101075.68
2022-08-09T03:06:27.405Z,101069.70
2022-08-09T03:08:58.824Z,101066.23
2022-08-09T03:12:04.586Z,101066.47
2022-08-09T03:14:01.775Z,101073.52
2022-08-09T03:16:30.155Z,101069.75
2022-08-09T03:19:01.784Z,101077.03
2022-08-09T03:21:36.583Z,101070.39
2022-08-09T03:24:04.378Z,101083.72
2022-08-09T03:26:32.344Z,101085.27
2022-08-09T03:29:01.868Z,101085.69
2022-08-09T03:31:32.283Z,101081.35
2022-08-09T03:34:14.127Z,101085.97
2022-08-09T03:36:43.016Z,101089.11
2022-08-09T03:39:13.517Z,101091.66
2022-08-09T03:41:45.816Z,101093.52
2022-08-09T03:44:15.464Z,101093.56
2022-08-09T03:46:44.572Z,101099.47
2022-08-09T03:49:19.071Z,101101.80
2022-08-09T03:51:58.685Z,101097.93
2022-08-09T03:54:29.364Z,101101.37
2022-08-09T03:56:52.456Z,101104.08
2022-08-09T03:59:27.109Z,101101.31
2022-08-09T04:01:53.782Z,101107.59
2022-08-09T04:04:24.601Z,101100.11
2022-08-09T04:06:53.558Z,101100.52
2022-08-09T04:09:44.555Z,101103.77
2022-08-09T04:11:56.764Z,101100.14
2022-08-09T04:14:53.615Z,101102.10
2022-08-09T04:16:57.409Z,101104.98
2022-08-09T04:19:42.632Z,101095.97
2022-08-09T04:21:58.255Z,101104.94
2022-08-09T04:24:27.073Z,101096.89
2022-08-09T04:26:55.835Z,101097.48
2022-08-09T04:29:25.041Z,101097.95
2022-08-09T04:31:57.948Z,101100.64
2022-08-09T04:34:31.700Z,101102.38
2022-08-09T04:36:57.463Z,101115.97
2022-08-09T04:39:30.853Z,101110.87
2022-08-09T04:41:57.557Z,101118.00
2022-08-09T04:44:28.941Z,101116.01
2022-08-09T04:47:04.324Z,101113.59
2022-08-09T04:49:53.906Z,101109.70
2022-08-09T04:52:01.200Z,101110.95
2022-08-09T04:54:30.640Z,101111.30
2022-08-09T04:57:00.278Z,101115.45
2022-08-09T04:59:30.636Z,101117.99
2022-08-09T05:02:02.927Z,101117.76
2022-08-09T05:04:31.069Z,101125.53
2022-08-09T05:07:00.317Z,101127.16
2022-08-09T05:09:42.192Z,101125.82
2022-08-09T05:12:01.143Z,101134.30
2022-08-09T05:14:31.549Z,101132.13
2022-08-09T05:17:02.192Z,101127.12
2022-08-09T05:19:31.731Z,101132.83
2022-08-09T05:22:01.399Z,101127.58
2022-08-09T05:24:30.210Z,101127.70
2022-08-09T05:26:58.932Z,101126.34
2022-08-09T05:29:31.543Z,101126.65
2022-08-09T05:32:02.674Z,101131.70
2022-08-09T05:34:34.225Z,101131.87
2022-08-09T05:37:06.059Z,101140.56
2022-08-09T05:39:36.080Z,101142.67
2022-08-09T05:42:06.229Z,101133.16
2022-08-09T05:44:35.895Z,101138.30
2022-08-09T05:47:05.494Z,101140.45
2022-08-09T05:50:16.776Z,101142.56
2022-08-09T05:52:05.339Z,101145.86
2022-08-09T05:54:34.108Z,101146.11
2022-08-09T05:57:02.814Z,101143.94
2022-08-09T05:59:33.310Z,101145.02
2022-08-09T06:02:02.241Z,101144.62
2022-08-09T06:04:44.564Z,101142.97
2022-08-09T06:07:09.403Z,101150.09
2022-08-09T06:09:54.577Z,101151.79
2022-08-09T06:12:09.023Z,101147.80
2022-08-09T06:14:37.949Z,101145.09
2022-08-09T06:17:09.779Z,101144.12
2022-08-09T06:19:37.049Z,101141.64
2022-08-09T06:22:06.698Z,101144.88
2022-08-09T06:24:37.057Z,101138.90
2022-08-09T06:27:07.411Z,101143.67
2022-08-09T06:29:48.016Z,101145.37
2022-08-09T06:32:08.990Z,101145.34
2022-08-09T06:34:37.903Z,101155.64
2022-08-09T06:37:08.099Z,101149.37
2022-08-09T06:39:48.163Z,101149.39
2022-08-09T06:42:08.811Z,101149.53
2022-08-09T06:44:37.867Z,101151.31
2022-08-09T06:47:08.421Z,101151.47
2022-08-09T06:50:12.016Z,101153.52
2022-08-09T06:52:07.770Z,101155.22
2022-08-09T06:54:36.703Z,101158.89
2022-08-09T06:57:07.031Z,101155.08
2022-08-09T07:00:57.038Z,101154.34
2022-08-09T07:02:07.545Z,101157.44
2022-08-09T07:04:37.653Z,101159.13
2022-08-09T07:07:06.440Z,101160.08
2022-08-09T07:09:55.405Z,101161.79
2022-08-09T07:12:07.496Z,101158.91
2022-08-09T07:14:38.068Z,101163.39
2022-08-09T07:17:08.106Z,101166.88
2022-08-09T07:19:37.051Z,101169.30
2022-08-09T07:22:07.100Z,101168.08
2022-08-09T07:24:40.200Z,101168.27
2022-08-09T07:27:23.900Z,101170.91
2022-08-09T07:29:42.573Z,101176.03
2022-08-09T07:32:09.894Z,101175.42
2022-08-09T07:34:38.619Z,101174.83
2022-08-09T07:37:15.525Z,101181.85
2022-08-09T07:39:41.291Z,101181.89
2022-08-09T07:42:10.062Z,101189.28
2022-08-09T07:44:51.852Z,101186.44
2022-08-09T07:47:09.920Z,101185.56
2022-08-09T07:50:04.485Z,101188.39
2022-08-09T07:52:17.051Z,101188.44
2022-08-09T07:54:41.029Z,101194.39
2022-08-09T07:57:11.608Z,101187.23
2022-08-09T07:59:51.962Z,101196.27
2022-08-09T08:02:10.881Z,101197.22
2022-08-09T08:04:41.767Z,101194.09
2022-08-09T08:08:05.956Z,101193.78
2022-08-09T08:09:51.496Z,101193.66
2022-08-09T08:12:28.305Z,101202.19
2022-08-09T08:17:52.398Z,101197.14
2022-08-09T08:19:57.041Z,101193.60
2022-08-09T08:22:30.019Z,101192.94
2022-08-09T08:24:57.530Z,101192.05
2022-08-09T08:27:27.041Z,101195.74
2022-08-09T08:29:57.457Z,101196.13
2022-08-09T08:32:28.987Z,101191.30
2022-08-09T08:34:58.897Z,101194.50
2022-08-09T08:37:41.700Z,101195.22
2022-08-09T08:40:00.143Z,101199.80
2022-08-09T08:42:32.137Z,101202.48
2022-08-09T08:45:00.925Z,101201.98
2022-08-09T08:47:31.410Z,101204.16
2022-08-09T08:50:02.809Z,101205.66
2022-08-09T08:55:03.891Z,101209.70
2022-08-09T08:57:35.299Z,101213.28
2022-08-09T09:00:07.854Z,101208.10
2022-08-09T09:02:35.733Z,101207.27
2022-08-09T09:05:06.070Z,101197.98
2022-08-09T09:07:36.721Z,101200.84
2022-08-09T09:10:08.898Z,101200.50
2022-08-09T09:12:38.295Z,101203.70
2022-08-09T09:15:07.555Z,101201.01
2022-08-09T09:17:49.212Z,101198.95
2022-08-09T09:20:09.225Z,101198.97
2022-08-09T09:22:53.276Z,101200.09
2022-08-09T09:26:03.316Z,101203.25
2022-08-09T09:28:08.030Z,101198.57
2022-08-09T09:30:40.734Z,101203.20
2022-08-09T09:33:14.379Z,101199.70
2022-08-09T09:36:02.277Z,101196.06
2022-08-09T09:38:36.282Z,101200.11
2022-08-09T09:40:55.079Z,101197.48
2022-08-09T09:43:25.039Z,101195.34
2022-08-09T09:46:38.866Z,101189.23
2022-08-09T09:48:25.607Z,101191.86
2022-08-09T09:50:55.151Z,101187.33
2022-08-09T09:53:43.799Z,101188.14
2022-08-09T09:56:04.382Z,101194.68
2022-08-09T09:58:49.091Z,101199.63
2022-08-09T10:01:31.508Z,101184.81
2022-08-09T10:03:57.151Z,101185.19
2022-08-09T10:06:22.199Z,101178.39
2022-08-09T10:08:54.802Z,101181.20
2022-08-09T10:12:00.703Z,101180.13
2022-08-09T10:13:54.773Z,101176.65
2022-08-09T10:16:57.029Z,101175.61
2022-08-09T10:19:04.360Z,101177.83
2022-08-09T10:21:33.639Z,101173.16
2022-08-09T10:24:04.672Z,101173.53
2022-08-09T10:26:33.677Z,101177.36
2022-08-09T10:29:31.694Z,101180.61
2022-08-09T10:34:10.318Z,101177.38
2022-08-09T10:36:35.542Z,101174.47
2022-08-09T10:39:13.913Z,101176.77
2022-08-09T10:41:36.533Z,101167.39
2022-08-09T10:44:05.531Z,101156.99
2022-08-09T10:46:57.376Z,101158.28
2022-08-09T10:49:42.299Z,101154.77
2022-08-09T10:52:13.554Z,101162.53
2022-08-09T10:54:42.598Z,101154.14
2022-08-09T10:57:15.947Z,101155.78
2022-08-09T10:59:57.597Z,101153.48
2022-08-09T11:03:14.871Z,101148.18
2022-08-09T11:04:56.307Z,101149.11
2022-08-09T11:07:22.766Z,101144.13
2022-08-09T11:09:52.844Z,101142.50
2022-08-09T11:12:30.232Z,101144.78
2022-08-09T11:15:02.885Z,101138.66
2022-08-09T11:17:34.531Z,101132.91
2022-08-09T11:20:20.030Z,101134.44
2022-08-09T11:22:44.966Z,101127.28
2022-08-09T11:25:17.647Z,101138.86
2022-08-09T11:28:04.977Z,101136.59
2022-08-09T11:30:32.542Z,101121.78
2022-08-09T11:33:02.120Z,101126.45
2022-08-09T11:35:50.241Z,101124.41
2022-08-09T11:38:32.665Z,101123.53
2022-08-09T11:40:56.054Z,101125.19
2022-08-09T11:43:32.390Z,101118.42
2022-08-09T11:46:02.934Z,101130.16
2022-08-09T11:48:32.818Z,101127.23
2022-08-09T11:52:48.842Z,101121.78
2022-08-09T11:53:58.799Z,101118.86
2022-08-09T11:56:20.055Z,101126.05
2022-08-09T11:58:50.211Z,101122.82
2022-08-09T12:02:18.043Z,101125.73
2022-08-09T12:03:56.638Z,101122.51
2022-08-09T12:06:26.807Z,101127.41
2022-08-09T12:08:54.054Z,101123.12
2022-08-09T12:11:24.407Z,101111.63
2022-08-09T12:14:07.101Z,101112.34
2022-08-09T12:16:38.505Z,101114.87
2022-08-09T12:19:03.978Z,101113.36
2022-08-09T12:21:38.839Z,101112.37
2022-08-09T12:24:10.164Z,101108.72
2022-08-09T12:26:40.695Z,101107.27
2022-08-09T12:29:30.022Z,101106.88
2022-08-09T12:31:59.013Z,101105.34
2022-08-09T12:34:14.238Z,101105.55
2022-08-09T12:36:58.882Z,101100.38
2022-08-09T12:39:24.749Z,101101.88
2022-08-09T12:41:55.486Z,101095.17
2022-08-09T12:44:26.273Z,101097.50
2022-08-09T12:46:56.689Z,101100.03
2022-08-09T12:49:25.777Z,101090.14
2022-08-09T12:52:02.479Z,101091.66
2022-08-09T12:54:26.946Z,101095.74
2022-08-09T12:56:55.726Z,101097.37
2022-08-09T12:59:57.974Z,101086.30
2022-08-09T13:02:00.868Z,101087.64
2022-08-09T13:04:36.668Z,101082.96
2022-08-09T13:07:02.091Z,101077.89
2022-08-09T13:09:30.865Z,101083.08
2022-08-09T13:12:02.994Z,101076.10
2022-08-09T13:14:41.697Z,101083.58
2022-08-09T13:17:04.716Z,101075.16
2022-08-09T13:20:10.403Z,101070.27
2022-08-09T13:22:37.898Z,101070.84
2022-08-09T13:24:53.116Z,101073.08
2022-08-09T13:27:26.633Z,101078.88
2022-08-09T13:30:03.850Z,101085.86
2022-08-09T13:32:46.373Z,101078.73
2022-08-09T13:35:18.824Z,101077.37
2022-08-09T13:37:52.255Z,101079.14
2022-08-09T13:41:54.256Z,101077.47
2022-08-09T13:42:49.895Z,101067.02
2022-08-09T13:45:19.240Z,101070.48
2022-08-09T13:47:52.684Z,101075.16
2022-08-09T13:50:31.268Z,101072.33
2022-08-09T13:52:50.011Z,101068.05
2022-08-09T13:55:21.025Z,101077.42
2022-08-09T13:57:56.259Z,101075.27
2022-08-09T14:00:20.795Z,101081.66
2022-08-09T14:03:03.635Z,101078.02
2022-08-09T14:06:00.247Z,101085.58
2022-08-09T14:07:51.760Z,101082.42
2022-08-09T14:10:37.431Z,101082.05
2022-08-09T14:12:52.468Z,101093.87
2022-08-09T14:16:10.491Z,101091.46
2022-08-09T14:18:06.448Z,101087.20
2022-08-09T14:20:24.775Z,101094.98
2022-08-09T14:22:52.476Z,101093.67
2022-08-09T14:25:22.801Z,101095.29
2022-08-09T14:27:56.918Z,101094.89
2022-08-09T14:30:36.360Z,101090.59
2022-08-09T14:32:52.343Z,101087.07
2022-08-09T14:35:22.122Z,101087.34
2022-08-09T14:38:02.093Z,101086.20
2022-08-09T14:40:38.781Z,101082.67
2022-08-09T14:42:52.456Z,101083.28
2022-08-09T14:46:54.753Z,101081.33
2022-08-09T14:47:58.009Z,101081.14
2022-08-09T14:50:22.541Z,101082.73
2022-08-09T14:52:52.858Z,101078.48
2022-08-09T14:55:23.189Z,101073.63
2022-08-09T14:57:51.945Z,101079.05
2022-08-09T15:00:22.349Z,101077.39
2022-08-09T15:02:52.338Z,101080.45
2022-08-09T15:05:21.549Z,101072.23
2022-08-09T15:07:54.883Z,101073.42
2022-08-09T15:10:21.860Z,101070.14
2022-08-09T15:12:52.207Z,101070.72
2022-08-09T15:15:21.292Z,101066.55
2022-08-09T15:17:52.793Z,101068.37
2022-08-09T15:21:55.920Z,101067.17
2022-08-09T15:22:59.853Z,101066.91
2022-08-09T15:25:39.055Z,101064.20
2022-08-09T15:27:54.971Z,101058.40
2022-08-09T15:30:56.256Z,101064.14
2022-08-09T15:32:55.987Z,101062.60
2022-08-09T15:35:44.235Z,101064.89
2022-08-09T15:38:11.771Z,101066.37
2022-08-09T15:40:32.032Z,101063.16
2022-08-09T15:42:57.713Z,101065.75
2022-08-09T15:45:29.381Z,101065.23
2022-08-09T15:48:05.388Z,101065.30
2022-08-09T15:50:28.921Z,101067.17
2022-08-09T15:53:06.012Z,101060.33
2022-08-09T15:55:29.235Z,101061.67
2022-08-09T15:57:59.604Z,101054.05
2022-08-09T16:00:30.238Z,101057.97
2022-08-09T16:02:59.746Z,101049.50
2022-08-09T16:05:36.284Z,101046.69
2022-08-09T16:08:01.636Z,101045.37
2022-08-09T16:10:55.964Z,101045.17
2022-08-09T16:13:03.113Z,101047.44
2022-08-09T16:16:04.454Z,101046.80
2022-08-09T16:18:03.985Z,101046.80
2022-08-09T16:20:32.755Z,101043.72
2022-08-09T16:23:01.583Z,101046.92
2022-08-09T16:25:40.458Z,101038.75
2022-08-09T16:28:02.322Z,101039.81
2022-08-09T16:30:32.732Z,101038.58
2022-08-09T16:33:11.275Z,101034.55
2022-08-09T16:35:56.122Z,101039.58
2022-08-09T16:38:11.449Z,101039.17
2022-08-09T16:40:41.386Z,101037.40
2022-08-09T16:43:10.375Z,101036.20
2022-08-09T16:45:44.193Z,101040.37
2022-08-09T16:48:38.747Z,101038.14
2022-08-09T16:50:41.051Z,101041.11
2022-08-09T16:53:11.868Z,101045.81
2022-08-09T16:56:00.102Z,101043.55
2022-08-09T16:58:11.821Z,101042.79
2022-08-09T17:00:42.831Z,101044.80
2022-08-09T17:03:21.643Z,101046.70
2022-08-09T17:06:07.079Z,101047.95
2022-08-09T17:08:44.819Z,101045.11
2022-08-09T17:10:43.199Z,101045.80
2022-08-09T17:13:13.496Z,101047.16
2022-08-09T17:15:59.802Z,101046.69
2022-08-09T17:18:13.489Z,101051.64
2022-08-09T17:20:52.471Z,101049.63
2022-08-09T17:23:15.030Z,101053.39
2022-08-09T17:25:45.180Z,101051.16
2022-08-09T17:28:15.638Z,101050.13
2022-08-09T17:30:47.566Z,101057.19
2022-08-09T17:33:21.918Z,101056.24
2022-08-09T17:35:46.721Z,101060.13
2022-08-09T17:38:29.297Z,101061.33
2022-08-09T17:40:47.298Z,101058.95
2022-08-09T17:43:33.790Z,101060.16
2022-08-09T17:46:04.029Z,101065.95
2022-08-09T17:48:16.926Z,101058.77
2022-08-09T17:50:48.488Z,101060.39
2022-08-09T17:53:21.767Z,101066.20
2022-08-09T17:55:48.683Z,101062.89
2022-08-09T17:58:18.424Z,101069.77
2022-08-09T18:00:48.234Z,101067.48
2022-08-09T18:03:17.948Z,101071.47
2022-08-09T18:05:52.941Z,101076.44
2022-08-09T18:08:17.664Z,101081.34
2022-08-09T18:11:01.835Z,101077.53
2022-08-09T18:13:43.649Z,101080.13
2022-08-09T18:16:05.380Z,101075.41
2022-08-09T18:18:25.861Z,101077.59
2022-08-09T18:20:56.513Z,101074.75
2022-08-09T18:24:12.198Z,101076.94
2022-08-09T18:25:57.499Z,101083.64
2022-08-09T18:30:42.520Z,101084.93
2022-08-09T18:30:51.173Z,101077.16
2022-08-09T18:33:23.000Z,101081.12
2022-08-09T18:35:59.312Z,101080.69
2022-08-09T18:38:20.779Z,101083.34
2022-08-09T18:40:52.569Z,101088.16
2022-08-09T18:43:21.623Z,101090.11
2022-08-09T18:46:49.263Z,101090.64
2022-08-09T18:48:22.589Z,101090.41
2022-08-09T18:50:53.080Z,101094.84
2022-08-09T18:53:22.422Z,101096.55
2022-08-09T18:55:56.399Z,101097.50
2022-08-09T18:58:32.250Z,101104.63
2022-08-09T19:00:54.930Z,101106.01
2022-08-09T19:03:25.325Z,101117.14
2022-08-09T19:06:02.840Z,101113.81
2022-08-09T19:08:28.016Z,101115.08
2022-08-09T19:10:55.844Z,101118.95
2022-08-09T19:13:38.521Z,101123.19
2022-08-09T19:15:56.620Z,101123.28
2022-08-09T19:18:34.216Z,101126.55
2022-08-09T19:20:56.941Z,101129.87
2022-08-09T19:24:39.577Z,101134.70
2022-08-09T19:26:02.033Z,101133.66
2022-08-09T19:28:28.850Z,101131.86
2022-08-09T19:30:57.747Z,101129.47
2022-08-09T19:33:27.428Z,101128.34
2022-08-09T19:35:58.003Z,101137.83
2022-08-09T19:38:27.240Z,101131.41
2022-08-09T19:41:00.463Z,101135.94
2022-08-09T19:44:00.698Z,101129.38
2022-08-09T19:45:59.951Z,101131.42
2022-08-09T19:49:02.519Z,101131.77
2022-08-09T19:51:00.851Z,101140.60
2022-08-09T19:53:29.825Z,101145.67
2022-08-09T19:56:03.024Z,101148.89
2022-08-09T19:58:30.769Z,101152.23
2022-08-09T20:01:01.582Z,101150.19
2022-08-09T20:04:10.799Z,101146.80
2022-08-09T20:06:03.184Z,101147.38
2022-08-09T20:08:34.861Z,101144.83
2022-08-09T20:11:04.483Z,101153.78
2022-08-09T20:13:37.232Z,101154.36
2022-08-09T20:18:41.048Z,101154.92
2022-08-09T20:21:11.764Z,101164.44
2022-08-09T20:23:41.285Z,101165.91
2022-08-09T20:26:15.453Z,101167.25
2022-08-09T20:28:48.079Z,101170.55
2022-08-09T20:31:13.854Z,101159.72
2022-08-09T20:33:44.707Z,101161.45
2022-08-09T20:36:14.378Z,101166.70
2022-08-09T20:39:18.655Z,101158.25
2022-08-09T20:41:15.276Z,101157.17
2022-08-09T20:43:45.502Z,101152.97
2022-08-09T20:46:43.345Z,101170.98
2022-08-09T20:48:46.193Z,101167.64
2022-08-09T20:51:19.221Z,101170.95
2022-08-09T20:53:45.792Z,101172.42
2022-08-09T20:56:20.767Z,101168.66
2022-08-09T20:58:46.917Z,101172.11
2022-08-09T21:01:34.867Z,101179.89
2022-08-09T21:05:51.031Z,101177.47
2022-08-09T21:06:19.051Z,101177.98
2022-08-09T21:08:50.870Z,101183.22
2022-08-09T21:14:00.083Z,101183.20
2022-08-09T21:16:22.386Z,101182.83
2022-08-09T21:19:48.492Z,101188.19
2022-08-09T21:21:23.693Z,101192.68
2022-08-09T21:23:57.819Z,101194.00
2022-08-09T21:26:24.443Z,101189.02
2022-08-09T21:28:56.868Z,101184.53
2022-08-09T21:31:23.863Z,101186.46
2022-08-09T21:33:56.726Z,101184.88
2022-08-09T21:36:28.690Z,101188.63
2022-08-09T21:38:58.049Z,101187.18
2022-08-09T21:42:06.059Z,101197.38
2022-08-09T21:43:58.356Z,101195.34
2022-08-09T21:46:27.998Z,101198.37
2022-08-09T21:48:58.431Z,101201.91
2022-08-09T21:51:35.891Z,101205.55
2022-08-09T21:53:58.004Z,101208.34
2022-08-09T21:56:32.825Z,101205.97
2022-08-09T21:58:59.651Z,101207.07
2022-08-09T22:01:59.056Z,101202.22
2022-08-09T22:03:59.385Z,101205.78
2022-08-09T22:06:28.810Z,101200.08
2022-08-09T22:08:58.149Z,101205.64
2022-08-09T22:12:06.059Z,101201.03
2022-08-09T22:13:57.933Z,101196.45
2022-08-09T22:16:27.471Z,101200.45
2022-08-09T22:18:58.223Z,101198.52
2022-08-09T22:21:45.073Z,101195.97
2022-08-09T22:24:01.438Z,101196.70
2022-08-09T22:26:34.936Z,101194.76
2022-08-09T22:29:06.803Z,101206.89
2022-08-09T22:31:32.479Z,101210.04
2022-08-09T22:34:02.397Z,101211.73
2022-08-09T22:36:37.388Z,101216.83
2022-08-09T22:39:01.536Z,101212.48
2022-08-09T22:41:30.272Z,101215.39
2022-08-09T22:44:02.336Z,101219.75
2022-08-09T22:48:13.622Z,101218.31
2022-08-09T22:49:01.776Z,101215.27
2022-08-09T22:51:30.916Z,101213.82
2022-08-09T22:54:02.953Z,101210.67
2022-08-09T22:56:33.907Z,101211.48
2022-08-09T22:59:00.457Z,101214.52
2022-08-09T23:01:29.247Z,101215.39
2022-08-09T23:04:03.532Z,101216.83
2022-08-09T23:06:36.159Z,101212.83
2022-08-09T23:09:01.330Z,101219.61
2022-08-09T23:11:30.952Z,101219.86
2022-08-09T23:13:59.717Z,101223.02
2022-08-09T23:16:28.561Z,101214.06
2022-08-09T23:18:57.459Z,101215.85
2022-08-09T23:21:31.316Z,101213.44
2022-08-09T23:24:05.647Z,101215.02
2022-08-09T23:26:27.201Z,101216.47
2022-08-09T23:28:56.054Z,101220.23
2022-08-09T23:31:24.799Z,101222.19
2022-08-09T23:33:53.598Z,101220.61
2022-08-09T23:36:22.378Z,101223.48
2022-08-09T23:38:52.126Z,101221.06
2022-08-09T23:41:27.919Z,101222.52
2022-08-09T23:43:51.547Z,101225.34
2022-08-09T23:46:22.801Z,101220.83
2022-08-09T23:48:51.976Z,101224.83
2022-08-09T23:51:20.878Z,101221.67
2022-08-09T23:53:50.610Z,101220.00
2022-08-09T23:56:39.424Z,101220.84
2022-08-09T23:58:51.864Z,101214.05
